Terminal Aerodrome Forecast
Issued by NWS Charleston, WV

Current Version | Previous Version | Text Only | Print | Product List | Glossary Off
Versions: 1 2 3 4 5 6 7 8 9 10 11 12 13 14 15 16 17 18 19 20 21

433
FTUS41 KRLX 231736
TAFPKB
TAF
KPKB 231736Z 2318/2418 VRB03KT P6SM SCT045
     FM240100 00000KT P6SM FEW045
     FM240600 00000KT 4SM BR SKC
     FM240800 00000KT 2SM BR SKC
     FM241300 00000KT 4SM HZ SCT250
     FM241400 00000KT P6SM SCT250=

USA.gov is the U.S. government's official web portal to all federal, state and local government web resources and services.